createdAt,value
2022-12-25T00:00:53.504Z,91842.88
2022-12-25T00:03:20.368Z,91844.84
2022-12-25T00:05:47.149Z,91840.44
2022-12-25T00:08:13.862Z,91842.19
2022-12-25T00:10:45.299Z,91847.38
2022-12-25T00:13:12.530Z,91834.09
2022-12-25T00:15:41.189Z,91853.06
2022-12-25T00:18:07.812Z,91840.16
2022-12-25T00:20:34.492Z,91841.00
2022-12-25T00:23:01.112Z,91854.47
2022-12-25T00:25:27.749Z,91856.88
2022-12-25T00:27:54.418Z,91855.06
2022-12-25T00:30:21.130Z,91856.94
2022-12-25T00:32:47.753Z,91858.22
2022-12-25T00:35:14.347Z,91862.91
2022-12-25T00:37:41.002Z,91860.28
2022-12-25T00:40:08.223Z,91865.97
2022-12-25T00:42:34.986Z,91866.50
2022-12-25T00:45:01.669Z,91862.84
2022-12-25T00:47:28.392Z,91864.41
2022-12-25T00:49:55.309Z,91863.63
2022-12-25T00:52:22.018Z,91868.53
2022-12-25T00:54:48.728Z,91864.84
2022-12-25T00:57:15.564Z,91868.50
2022-12-25T00:59:42.173Z,91870.38
2022-12-25T01:02:24.220Z,91872.66
2022-12-25T01:04:52.145Z,91866.97
2022-12-25T01:07:19.126Z,91869.22
2022-12-25T01:10:04.830Z,91859.47
2022-12-25T01:12:32.633Z,91852.88
2022-12-25T01:14:59.349Z,91854.84
2022-12-25T01:17:26.042Z,91852.75
2022-12-25T01:19:52.677Z,91859.31
2022-12-25T01:22:19.977Z,91845.84
2022-12-25T01:24:46.788Z,91856.50
2022-12-25T01:27:13.547Z,91853.34
2022-12-25T01:29:40.315Z,91859.91
2022-12-25T01:32:06.928Z,91863.28
2022-12-25T01:34:33.617Z,91858.34
2022-12-25T01:37:00.255Z,91869.50
2022-12-25T01:39:26.921Z,91871.28
2022-12-25T01:41:53.505Z,91863.63
2022-12-25T01:44:20.099Z,91870.06
2022-12-25T01:46:46.783Z,91872.88
2022-12-25T01:49:20.833Z,91870.41
2022-12-25T01:52:06.005Z,91874.41
2022-12-25T01:54:34.993Z,91871.16
2022-12-25T01:57:03.030Z,91874.31
2022-12-25T01:59:29.739Z,91870.72
2022-12-25T02:01:57.158Z,91869.28
2022-12-25T02:04:40.662Z,91874.97
2022-12-25T02:07:09.060Z,91875.66
2022-12-25T02:09:35.728Z,91868.41
2022-12-25T02:12:02.400Z,91867.50
2022-12-25T02:14:30.889Z,91864.06
2022-12-25T02:17:45.905Z,91876.75
2022-12-25T02:20:43.233Z,91872.09
2022-12-25T02:23:37.865Z,91881.03
2022-12-25T02:26:07.363Z,91882.47
2022-12-25T02:28:36.942Z,91889.03
2022-12-25T02:31:13.292Z,91892.16
2022-12-25T02:34:05.155Z,91893.25
2022-12-25T02:36:36.358Z,91891.25
2022-12-25T02:39:22.918Z,91886.38
2022-12-25T02:41:49.580Z,91882.66
2022-12-25T02:44:36.944Z,91884.06
2022-12-25T02:47:22.363Z,91890.19
2022-12-25T02:50:07.937Z,91887.81
2022-12-25T02:52:53.263Z,91879.09
2022-12-25T02:55:40.252Z,91885.59
2022-12-25T02:58:30.711Z,91883.19
2022-12-25T03:01:27.835Z,91876.91
2022-12-25T03:04:30.915Z,91872.81
2022-12-25T03:07:14.573Z,91877.03
2022-12-25T03:10:01.720Z,91878.72
2022-12-25T03:13:01.834Z,91879.16
2022-12-25T03:15:47.121Z,91882.78
2022-12-25T03:18:15.443Z,91882.31
2022-12-25T03:21:00.769Z,91887.63
2022-12-25T03:23:48.583Z,91887.38
2022-12-25T03:26:33.863Z,91889.97
2022-12-25T03:29:00.486Z,91880.22
2022-12-25T03:31:43.506Z,91890.41
2022-12-25T03:34:46.904Z,91893.03
2022-12-25T03:37:43.398Z,91896.06
2022-12-25T03:40:31.513Z,91895.03
2022-12-25T03:43:24.984Z,91906.63
2022-12-25T03:46:11.483Z,91911.72
2022-12-25T03:48:58.140Z,91923.88
2022-12-25T03:51:47.004Z,91917.19
2022-12-25T03:54:32.113Z,91930.50
2022-12-25T03:57:16.913Z,91937.94
2022-12-25T04:00:01.979Z,91934.25
2022-12-25T04:02:47.059Z,91944.25
2022-12-25T04:05:32.369Z,91946.94
2022-12-25T04:08:17.416Z,91948.69
2022-12-25T04:11:02.282Z,91949.38
2022-12-25T04:13:47.732Z,91950.06
2022-12-25T04:16:32.666Z,91951.25
2022-12-25T04:19:18.058Z,91943.63
2022-12-25T04:22:03.441Z,91947.63
2022-12-25T04:24:48.869Z,91955.34
2022-12-25T04:27:53.692Z,91952.94
2022-12-25T04:30:38.541Z,91952.41
2022-12-25T04:33:24.043Z,91949.47
2022-12-25T04:36:09.345Z,91949.00
2022-12-25T04:38:36.276Z,91950.25
2022-12-25T04:41:02.980Z,91942.34
2022-12-25T04:43:29.766Z,91948.31
2022-12-25T04:45:57.116Z,91945.69
2022-12-25T04:48:24.007Z,91961.97
2022-12-25T04:50:50.684Z,91960.84
2022-12-25T04:53:17.426Z,91957.56
2022-12-25T04:55:44.065Z,91968.97
2022-12-25T04:58:10.805Z,91969.41
2022-12-25T05:00:37.581Z,91979.50
2022-12-25T05:03:04.436Z,91979.50
2022-12-25T05:05:31.252Z,91985.69
2022-12-25T05:07:58.042Z,91986.97
2022-12-25T05:10:24.796Z,91978.78
2022-12-25T05:12:51.441Z,91997.84
2022-12-25T05:15:18.159Z,92000.69
2022-12-25T05:17:44.776Z,92005.31
2022-12-25T05:20:11.452Z,92003.53
2022-12-25T05:22:38.008Z,91998.91
2022-12-25T05:25:05.091Z,92012.78
2022-12-25T05:27:31.751Z,92014.56
2022-12-25T05:29:58.575Z,92016.63
2022-12-25T05:32:25.209Z,92016.44
2022-12-25T05:34:51.883Z,92014.44
2022-12-25T05:37:18.549Z,92008.47
2022-12-25T05:39:45.121Z,92004.59
2022-12-25T05:42:11.840Z,92009.34
2022-12-25T05:44:38.520Z,92010.69
2022-12-25T05:47:05.148Z,92019.09
2022-12-25T05:49:32.136Z,92005.47
2022-12-25T05:51:58.820Z,92017.84
2022-12-25T05:54:25.482Z,92018.50
2022-12-25T05:56:52.184Z,92017.47
2022-12-25T05:59:18.886Z,92019.66
2022-12-25T06:01:46.611Z,92017.09
2022-12-25T06:04:13.583Z,92006.94
2022-12-25T06:06:40.778Z,92022.63
2022-12-25T06:09:07.488Z,92006.25
2022-12-25T06:11:34.220Z,92013.78
2022-12-25T06:14:01.251Z,92019.91
2022-12-25T06:16:30.560Z,92019.75
2022-12-25T06:19:02.381Z,92032.75
2022-12-25T06:21:29.063Z,92022.47
2022-12-25T06:23:55.711Z,92026.16
2022-12-25T06:26:22.414Z,92033.03
2022-12-25T06:28:49.078Z,92030.97
2022-12-25T06:31:17.653Z,92041.41
2022-12-25T06:33:44.499Z,92050.81
2022-12-25T06:36:18.992Z,92046.22
2022-12-25T06:38:45.619Z,92061.91
2022-12-25T06:41:32.430Z,92059.06
2022-12-25T06:44:00.184Z,92070.00
2022-12-25T06:46:28.189Z,92075.03
2022-12-25T06:48:55.084Z,92071.47
2022-12-25T06:51:23.434Z,92077.22
2022-12-25T06:53:50.564Z,92079.91
2022-12-25T06:56:19.678Z,92072.38
2022-12-25T06:58:47.981Z,92067.56
2022-12-25T07:01:27.392Z,92073.25
2022-12-25T07:03:57.160Z,92084.81
2022-12-25T07:06:23.811Z,92088.34
2022-12-25T07:08:50.500Z,92095.06
2022-12-25T07:11:17.253Z,92095.44
2022-12-25T07:13:43.861Z,92101.72
2022-12-25T07:16:10.718Z,92101.28
2022-12-25T07:18:37.460Z,92105.66
2022-12-25T07:21:17.360Z,92119.91
2022-12-25T07:23:44.369Z,92130.06
2022-12-25T07:26:11.681Z,92135.09
2022-12-25T07:28:38.521Z,92131.19
2022-12-25T07:31:15.453Z,92139.53
2022-12-25T07:33:42.398Z,92143.38
2022-12-25T07:36:12.415Z,92148.84
2022-12-25T07:38:40.341Z,92154.19
2022-12-25T07:41:10.922Z,92143.88
2022-12-25T07:43:37.607Z,92151.25
2022-12-25T07:46:05.135Z,92145.78
2022-12-25T07:48:31.876Z,92141.66
2022-12-25T07:51:03.406Z,92147.91
2022-12-25T07:53:30.069Z,92156.22
2022-12-25T07:56:04.783Z,92160.94
2022-12-25T07:58:31.693Z,92165.16
2022-12-25T08:01:10.002Z,92158.88
2022-12-25T08:03:37.088Z,92171.94
2022-12-25T08:06:08.486Z,92176.91
2022-12-25T08:08:35.690Z,92177.59
2022-12-25T08:11:02.384Z,92174.03
2022-12-25T08:13:32.763Z,92173.50
2022-12-25T08:16:04.026Z,92160.19
2022-12-25T08:18:30.790Z,92178.22
2022-12-25T08:20:57.623Z,92170.91
2022-12-25T08:23:24.454Z,92167.47
2022-12-25T08:25:51.080Z,92172.41
2022-12-25T08:28:17.716Z,92175.06
2022-12-25T08:30:44.489Z,92186.00
2022-12-25T08:33:11.136Z,92183.38
2022-12-25T08:35:37.719Z,92177.63
2022-12-25T08:38:04.508Z,92191.19
2022-12-25T08:40:32.450Z,92179.91
2022-12-25T08:42:59.023Z,92173.91
2022-12-25T08:45:28.537Z,92171.31
2022-12-25T08:47:59.567Z,92167.88
2022-12-25T08:50:26.206Z,92161.34
2022-12-25T08:52:52.827Z,92159.72
2022-12-25T08:55:19.439Z,92155.13
2022-12-25T08:57:46.110Z,92168.28
2022-12-25T09:00:13.345Z,92159.53
2022-12-25T09:02:40.106Z,92173.81
2022-12-25T09:05:07.582Z,92154.44
2022-12-25T09:07:34.305Z,92149.63
2022-12-25T09:10:00.928Z,92153.72
2022-12-25T09:12:27.520Z,92144.28
2022-12-25T09:14:54.121Z,92145.75
2022-12-25T09:17:20.879Z,92153.25
2022-12-25T09:19:47.618Z,92151.97
2022-12-25T09:22:14.317Z,92147.41
2022-12-25T09:24:40.959Z,92159.22
2022-12-25T09:27:07.848Z,92162.09
2022-12-25T09:29:34.498Z,92158.34
2022-12-25T09:32:01.205Z,92164.34
2022-12-25T09:34:28.001Z,92156.53
2022-12-25T09:36:54.656Z,92159.78
2022-12-25T09:39:21.228Z,92152.13
2022-12-25T09:41:55.178Z,92156.97
2022-12-25T09:44:27.320Z,92152.28
2022-12-25T09:47:08.187Z,92157.00
2022-12-25T09:50:00.860Z,92154.94
2022-12-25T09:52:48.539Z,92156.34
2022-12-25T09:55:19.891Z,92158.09
2022-12-25T09:58:00.706Z,92157.97
2022-12-25T10:00:41.028Z,92152.28
2022-12-25T10:03:10.630Z,92161.09
2022-12-25T10:06:02.000Z,92161.66
2022-12-25T10:08:50.273Z,92152.25
2022-12-25T10:11:55.987Z,92152.22
2022-12-25T10:14:43.695Z,92158.28
2022-12-25T10:17:25.445Z,92164.19
2022-12-25T10:20:12.973Z,92146.84
2022-12-25T10:22:48.691Z,92143.00
2022-12-25T10:25:23.356Z,92144.34
2022-12-25T10:27:57.978Z,92134.81
2022-12-25T10:30:25.636Z,92141.19
2022-12-25T10:32:52.219Z,92138.75
2022-12-25T10:35:20.501Z,92138.59
2022-12-25T10:37:52.977Z,92136.19
2022-12-25T10:40:28.950Z,92143.69
2022-12-25T10:43:08.150Z,92131.91
2022-12-25T10:45:55.233Z,92133.97
2022-12-25T10:48:25.397Z,92141.22
2022-12-25T10:50:52.107Z,92133.50
2022-12-25T10:53:24.046Z,92130.31
2022-12-25T10:56:15.087Z,92125.69
2022-12-25T10:58:41.817Z,92124.63
2022-12-25T11:01:08.528Z,92122.53
2022-12-25T11:03:37.666Z,92124.81
2022-12-25T11:06:04.864Z,92131.06
2022-12-25T11:08:32.099Z,92124.66
2022-12-25T11:11:00.095Z,92125.44
2022-12-25T11:13:28.168Z,92127.47
2022-12-25T11:16:12.027Z,92140.09
2022-12-25T11:18:45.920Z,92140.25
2022-12-25T11:21:32.495Z,92138.72
2022-12-25T11:23:59.949Z,92138.34
2022-12-25T11:26:27.416Z,92134.19
2022-12-25T11:28:54.796Z,92126.91
2022-12-25T11:31:39.382Z,92126.13
2022-12-25T11:34:18.582Z,92143.13
2022-12-25T11:36:50.894Z,92137.03
2022-12-25T11:39:31.160Z,92132.34
2022-12-25T11:42:36.847Z,92135.19
2022-12-25T11:45:20.175Z,92142.19
2022-12-25T11:47:52.032Z,92141.78
2022-12-25T11:50:40.356Z,92131.63
2022-12-25T11:53:11.891Z,92143.13
2022-12-25T11:55:40.478Z,92149.78
2022-12-25T11:58:20.694Z,92148.16
2022-12-25T12:00:47.772Z,92138.72
2022-12-25T12:03:21.958Z,92142.63
2022-12-25T12:05:52.612Z,92144.47
2022-12-25T12:08:19.462Z,92149.38
2022-12-25T12:11:16.603Z,92147.81
2022-12-25T12:14:15.292Z,92133.41
2022-12-25T12:16:42.425Z,92139.75
2022-12-25T12:19:29.352Z,92128.25
2022-12-25T12:21:57.337Z,92148.38
2022-12-25T12:24:24.006Z,92153.22
2022-12-25T12:27:08.752Z,92162.34
2022-12-25T12:29:43.779Z,92164.13
2022-12-25T12:32:26.929Z,92158.16
2022-12-25T12:34:53.581Z,92162.00
2022-12-25T12:37:31.686Z,92168.81
2022-12-25T12:39:58.521Z,92159.88
2022-12-25T12:42:48.469Z,92160.16
2022-12-25T12:45:17.600Z,92167.91
2022-12-25T12:47:48.712Z,92171.47
2022-12-25T12:50:35.456Z,92170.69
2022-12-25T12:53:33.712Z,92171.06
2022-12-25T12:56:19.987Z,92178.09
2022-12-25T12:58:50.984Z,92175.03
2022-12-25T13:01:26.926Z,92169.78
2022-12-25T13:04:06.629Z,92177.56
2022-12-25T13:06:33.996Z,92180.53
2022-12-25T13:09:14.384Z,92188.94
2022-12-25T13:11:41.940Z,92190.50
2022-12-25T13:14:22.828Z,92184.06
2022-12-25T13:16:51.503Z,92195.44
2022-12-25T13:19:21.826Z,92187.91
2022-12-25T13:21:53.326Z,92188.41
2022-12-25T13:24:27.655Z,92193.63
2022-12-25T13:26:54.459Z,92180.22
2022-12-25T13:29:30.233Z,92187.97
2022-12-25T13:31:57.927Z,92184.38
2022-12-25T13:34:38.124Z,92189.72
2022-12-25T13:37:14.242Z,92187.63
2022-12-25T13:39:51.571Z,92184.91
2022-12-25T13:42:20.803Z,92196.81
2022-12-25T13:44:57.490Z,92188.59
2022-12-25T13:47:25.339Z,92195.34
2022-12-25T13:49:54.141Z,92194.19
2022-12-25T13:52:23.874Z,92190.88
2022-12-25T13:55:04.759Z,92197.56
2022-12-25T13:57:34.420Z,92191.78
2022-12-25T14:00:01.403Z,92200.84
2022-12-25T14:02:30.622Z,92196.19
2022-12-25T14:04:57.393Z,92196.25
2022-12-25T14:07:24.788Z,92203.34
2022-12-25T14:09:55.021Z,92205.84
2022-12-25T14:12:22.046Z,92206.00
2022-12-25T14:14:48.850Z,92204.84
2022-12-25T14:17:15.514Z,92193.59
2022-12-25T14:19:42.231Z,92199.09
2022-12-25T14:22:18.023Z,92202.19
2022-12-25T14:24:44.683Z,92203.34
2022-12-25T14:27:19.848Z,92201.75
2022-12-25T14:29:48.521Z,92207.22
2022-12-25T14:32:17.113Z,92209.25
2022-12-25T14:34:46.273Z,92212.44
2022-12-25T14:37:17.381Z,92207.13
2022-12-25T14:39:48.045Z,92204.78
2022-12-25T14:42:25.171Z,92211.50
2022-12-25T14:45:02.012Z,92215.50
2022-12-25T14:47:28.898Z,92216.59
2022-12-25T14:49:55.683Z,92208.59
2022-12-25T14:52:49.683Z,92208.13
2022-12-25T14:55:19.673Z,92213.16
2022-12-25T14:58:01.297Z,92215.97
2022-12-25T15:00:33.033Z,92220.47
2022-12-25T15:02:59.759Z,92222.91
2022-12-25T15:05:29.168Z,92219.25
2022-12-25T15:08:25.635Z,92225.03
2022-12-25T15:11:02.558Z,92225.09
2022-12-25T15:13:30.110Z,92228.00
2022-12-25T15:16:07.747Z,92226.69
2022-12-25T15:18:37.671Z,92226.69
2022-12-25T15:21:04.419Z,92215.22
2022-12-25T15:23:31.184Z,92215.44
2022-12-25T15:25:57.875Z,92217.56
2022-12-25T15:28:24.576Z,92228.53
2022-12-25T15:30:51.384Z,92235.06
2022-12-25T15:33:18.608Z,92240.81
2022-12-25T15:35:45.594Z,92234.25
2022-12-25T15:38:12.815Z,92241.84
2022-12-25T15:40:39.647Z,92237.09
2022-12-25T15:43:11.365Z,92234.47
2022-12-25T15:45:49.145Z,92239.22
2022-12-25T15:48:15.825Z,92238.91
2022-12-25T15:50:43.643Z,92245.97
2022-12-25T15:53:11.025Z,92248.56
2022-12-25T15:55:37.749Z,92255.34
2022-12-25T15:58:04.431Z,92252.47
2022-12-25T16:00:31.135Z,92254.31
2022-12-25T16:02:57.934Z,92257.78
2022-12-25T16:05:24.754Z,92265.06
2022-12-25T16:07:51.611Z,92258.88
2022-12-25T16:10:18.914Z,92262.63
2022-12-25T16:12:46.011Z,92271.53
2022-12-25T16:15:13.271Z,92266.72
2022-12-25T16:17:40.004Z,92280.66
2022-12-25T16:20:07.295Z,92269.06
2022-12-25T16:22:39.891Z,92280.28
2022-12-25T16:25:14.270Z,92283.41
2022-12-25T16:27:41.110Z,92284.91
2022-12-25T16:30:08.400Z,92280.38
2022-12-25T16:32:35.174Z,92281.38
2022-12-25T16:35:01.880Z,92279.25
2022-12-25T16:37:28.620Z,92285.28
2022-12-25T16:39:55.278Z,92277.00
2022-12-25T16:42:21.945Z,92281.94
2022-12-25T16:44:48.681Z,92284.50
2022-12-25T16:47:15.395Z,92279.50
2022-12-25T16:49:43.205Z,92287.50
2022-12-25T16:52:09.870Z,92287.66
2022-12-25T16:54:36.660Z,92288.31
2022-12-25T16:57:03.306Z,92295.53
2022-12-25T16:59:30.393Z,92302.75
2022-12-25T17:01:57.503Z,92304.91
2022-12-25T17:04:25.367Z,92305.34
2022-12-25T17:06:52.071Z,92314.16
2022-12-25T17:09:18.672Z,92311.00
2022-12-25T17:11:45.481Z,92317.69
2022-12-25T17:14:12.135Z,92325.50
2022-12-25T17:16:39.917Z,92327.31
2022-12-25T17:19:09.714Z,92331.72
2022-12-25T17:21:38.346Z,92325.81
2022-12-25T17:24:06.062Z,92323.19
2022-12-25T17:26:32.926Z,92338.81
2022-12-25T17:28:59.565Z,92335.78
2022-12-25T17:31:26.276Z,92342.97
2022-12-25T17:33:53.156Z,92343.47
2022-12-25T17:36:20.481Z,92336.66
2022-12-25T17:38:47.704Z,92340.44
2022-12-25T17:41:15.769Z,92339.03
2022-12-25T17:43:44.274Z,92338.56
2022-12-25T17:46:21.879Z,92351.81
2022-12-25T17:48:52.007Z,92355.16
2022-12-25T17:51:21.869Z,92359.56
2022-12-25T17:53:50.622Z,92362.88
2022-12-25T17:56:17.797Z,92366.78
2022-12-25T17:58:44.522Z,92370.91
2022-12-25T18:01:15.475Z,92371.81
2022-12-25T18:03:43.047Z,92367.69
2022-12-25T18:06:14.629Z,92366.44
2022-12-25T18:08:41.844Z,92367.28
2022-12-25T18:11:10.051Z,92370.66
2022-12-25T18:13:37.169Z,92372.88
2022-12-25T18:16:05.709Z,92371.22
2022-12-25T18:18:32.624Z,92361.88
2022-12-25T18:20:59.524Z,92372.03
2022-12-25T18:23:26.209Z,92367.47
2022-12-25T18:25:52.885Z,92377.41
2022-12-25T18:28:19.620Z,92375.84
2022-12-25T18:30:46.505Z,92375.22
2022-12-25T18:33:13.076Z,92375.59
2022-12-25T18:35:40.768Z,92372.19
2022-12-25T18:38:09.316Z,92377.22
2022-12-25T18:40:46.752Z,92372.38
2022-12-25T18:43:13.741Z,92374.28
2022-12-25T18:45:40.552Z,92380.44
2022-12-25T18:48:07.368Z,92380.06
2022-12-25T18:50:35.021Z,92377.53
2022-12-25T18:53:03.439Z,92382.22
2022-12-25T18:55:30.310Z,92376.03
2022-12-25T18:57:56.997Z,92384.25
2022-12-25T19:00:23.959Z,92384.59
2022-12-25T19:02:50.810Z,92389.28
2022-12-25T19:05:17.571Z,92380.44
2022-12-25T19:07:44.310Z,92379.88
2022-12-25T19:10:10.941Z,92386.34
2022-12-25T19:12:37.637Z,92374.97
2022-12-25T19:15:04.579Z,92380.38
2022-12-25T19:17:32.106Z,92373.59
2022-12-25T19:19:58.948Z,92381.88
2022-12-25T19:22:25.867Z,92387.63
2022-12-25T19:24:52.545Z,92386.84
2022-12-25T19:27:19.146Z,92384.13
2022-12-25T19:29:45.923Z,92385.44
2022-12-25T19:32:12.629Z,92385.13
2022-12-25T19:34:39.306Z,92382.94
2022-12-25T19:37:05.978Z,92389.16
2022-12-25T19:39:32.626Z,92386.63
2022-12-25T19:41:59.334Z,92383.72
2022-12-25T19:44:26.051Z,92391.72
2022-12-25T19:46:53.518Z,92389.47
2022-12-25T19:49:20.113Z,92394.09
2022-12-25T19:51:47.056Z,92390.50
2022-12-25T19:54:20.501Z,92395.53
2022-12-25T19:56:47.967Z,92401.09
2022-12-25T19:59:15.085Z,92397.84
2022-12-25T20:01:42.279Z,92403.72
2022-12-25T20:04:09.714Z,92400.91
2022-12-25T20:06:38.359Z,92407.06
2022-12-25T20:09:06.933Z,92397.66
2022-12-25T20:11:34.073Z,92401.41
2022-12-25T20:14:00.801Z,92392.63
2022-12-25T20:16:27.518Z,92400.13
2022-12-25T20:18:54.359Z,92397.69
2022-12-25T20:21:21.887Z,92390.16
2022-12-25T20:23:49.644Z,92381.03
2022-12-25T20:26:17.590Z,92378.22
2022-12-25T20:28:44.543Z,92381.38
2022-12-25T20:31:16.612Z,92384.66
2022-12-25T20:33:43.384Z,92385.44
2022-12-25T20:36:10.149Z,92379.09
2022-12-25T20:38:40.088Z,92380.22
2022-12-25T20:41:28.715Z,92383.91
2022-12-25T20:43:56.244Z,92377.06
2022-12-25T20:46:23.549Z,92388.19
2022-12-25T20:48:50.421Z,92383.69
2022-12-25T20:51:18.622Z,92372.91
2022-12-25T20:53:45.658Z,92377.63
2022-12-25T20:56:13.088Z,92371.44
2022-12-25T20:58:39.893Z,92373.47
2022-12-25T21:01:08.061Z,92387.22
2022-12-25T21:03:35.194Z,92381.31
2022-12-25T21:06:02.082Z,92382.13
2022-12-25T21:08:29.816Z,92384.75
2022-12-25T21:11:00.677Z,92384.16
2022-12-25T21:13:32.829Z,92380.75
2022-12-25T21:15:59.711Z,92370.19
2022-12-25T21:18:27.253Z,92389.28
2022-12-25T21:20:56.145Z,92376.16
2022-12-25T21:23:22.945Z,92387.31
2022-12-25T21:25:49.812Z,92387.13
2022-12-25T21:28:16.902Z,92392.38
2022-12-25T21:30:43.620Z,92390.88
2022-12-25T21:33:31.044Z,92394.09
2022-12-25T21:36:07.945Z,92389.50
2022-12-25T21:38:34.672Z,92389.94
2022-12-25T21:41:09.687Z,92384.78
2022-12-25T21:43:36.822Z,92385.72
2022-12-25T21:46:05.442Z,92389.88
2022-12-25T21:48:32.237Z,92380.94
2022-12-25T21:51:48.243Z,92373.75
2022-12-25T21:54:15.181Z,92388.47
2022-12-25T21:56:45.001Z,92384.88
2022-12-25T21:59:19.618Z,92391.66
2022-12-25T22:01:46.718Z,92392.22
2022-12-25T22:04:14.207Z,92381.72
2022-12-25T22:06:59.658Z,92385.88
2022-12-25T22:09:26.334Z,92381.34
2022-12-25T22:12:11.531Z,92388.66
2022-12-25T22:14:54.284Z,92384.47
2022-12-25T22:17:44.383Z,92384.31
2022-12-25T22:20:17.429Z,92395.44
2022-12-25T22:22:44.362Z,92388.78
2022-12-25T22:25:11.205Z,92384.16
2022-12-25T22:27:38.272Z,92379.91
2022-12-25T22:30:06.737Z,92377.81
2022-12-25T22:32:33.635Z,92370.66
2022-12-25T22:35:00.648Z,92374.44
2022-12-25T22:37:27.280Z,92380.50
2022-12-25T22:39:53.953Z,92377.16
2022-12-25T22:42:20.986Z,92377.56
2022-12-25T22:44:47.630Z,92380.22
2022-12-25T22:47:14.259Z,92379.31
2022-12-25T22:49:40.932Z,92372.97
2022-12-25T22:52:10.391Z,92371.41
2022-12-25T22:54:37.098Z,92361.19
2022-12-25T22:57:03.806Z,92357.88
2022-12-25T22:59:30.629Z,92367.91
2022-12-25T23:01:57.465Z,92361.84
2022-12-25T23:04:24.181Z,92366.72
2022-12-25T23:06:50.948Z,92366.03
2022-12-25T23:09:24.214Z,92367.50
2022-12-25T23:11:51.313Z,92369.97
2022-12-25T23:14:36.536Z,92371.03
2022-12-25T23:17:03.170Z,92373.38
2022-12-25T23:19:48.299Z,92377.03
2022-12-25T23:22:33.977Z,92374.72
2022-12-25T23:25:19.048Z,92379.75
2022-12-25T23:27:45.807Z,92374.66
2022-12-25T23:30:15.378Z,92380.69
2022-12-25T23:32:44.047Z,92370.59
2022-12-25T23:35:11.304Z,92375.59
2022-12-25T23:37:38.041Z,92371.72
2022-12-25T23:40:05.389Z,92371.31
2022-12-25T23:42:32.148Z,92375.59
2022-12-25T23:44:58.774Z,92377.63
2022-12-25T23:47:25.549Z,92387.72
2022-12-25T23:49:52.156Z,92387.84
2022-12-25T23:52:19.006Z,92396.25
2022-12-25T23:54:45.675Z,92393.09
2022-12-25T23:57:12.400Z,92388.47
2022-12-25T23:59:39.091Z,92391.84
